sensor_id;sensor_type;location;lat;lon;timestamp;P1;durP1;ratioP1;P2;durP2;ratioP2
19505;SDS011;9894;50.852;-0.140;2023-04-03T00:00:30;1.20;;;1.20;;
19505;SDS011;9894;50.852;-0.140;2023-04-03T00:02:56;1.20;;;1.20;;
19505;SDS011;9894;50.852;-0.140;2023-04-03T00:05:23;1.20;;;1.20;;
19505;SDS011;9894;50.852;-0.140;2023-04-03T00:07:49;1.20;;;1.20;;
19505;SDS011;9894;50.852;-0.140;2023-04-03T00:10:15;1.20;;;1.20;;
19505;SDS011;9894;50.852;-0.140;2023-04-03T00:12:41;1.10;;;1.10;;
19505;SDS011;9894;50.852;-0.140;2023-04-03T00:15:07;1.10;;;1.10;;
19505;SDS011;9894;50.852;-0.140;2023-04-03T00:17:34;1.20;;;1.20;;
19505;SDS011;9894;50.852;-0.140;2023-04-03T00:20:00;1.00;;;1.00;;
19505;SDS011;9894;50.852;-0.140;2023-04-03T00:22:27;1.00;;;1.00;;
19505;SDS011;9894;50.852;-0.140;2023-04-03T00:24:54;1.10;;;1.10;;
19505;SDS011;9894;50.852;-0.140;2023-04-03T00:27:20;1.00;;;1.00;;
19505;SDS011;9894;50.852;-0.140;2023-04-03T00:29:46;1.10;;;1.10;;
19505;SDS011;9894;50.852;-0.140;2023-04-03T00:32:12;1.00;;;1.00;;
19505;SDS011;9894;50.852;-0.140;2023-04-03T00:34:38;1.10;;;1.10;;
19505;SDS011;9894;50.852;-0.140;2023-04-03T00:37:04;1.10;;;1.10;;
19505;SDS011;9894;50.852;-0.140;2023-04-03T00:39:31;1.10;;;1.10;;
19505;SDS011;9894;50.852;-0.140;2023-04-03T00:41:57;1.00;;;1.00;;
19505;SDS011;9894;50.852;-0.140;2023-04-03T00:47:05;0.90;;;0.90;;
19505;SDS011;9894;50.852;-0.140;2023-04-03T00:49:32;0.90;;;0.90;;
19505;SDS011;9894;50.852;-0.140;2023-04-03T00:51:58;0.90;;;0.90;;
19505;SDS011;9894;50.852;-0.140;2023-04-03T00:54:25;0.80;;;0.80;;
19505;SDS011;9894;50.852;-0.140;2023-04-03T00:56:51;0.82;;;0.82;;
19505;SDS011;9894;50.852;-0.140;2023-04-03T00:59:20;0.82;;;0.82;;
19505;SDS011;9894;50.852;-0.140;2023-04-03T01:01:50;0.80;;;0.80;;
19505;SDS011;9894;50.852;-0.140;2023-04-03T01:04:30;0.80;;;0.80;;
19505;SDS011;9894;50.852;-0.140;2023-04-03T01:06:57;0.80;;;0.80;;
19505;SDS011;9894;50.852;-0.140;2023-04-03T01:09:24;0.80;;;0.80;;
19505;SDS011;9894;50.852;-0.140;2023-04-03T01:11:51;0.80;;;0.80;;
19505;SDS011;9894;50.852;-0.140;2023-04-03T01:14:17;0.70;;;0.70;;
19505;SDS011;9894;50.852;-0.140;2023-04-03T01:16:51;0.90;;;0.90;;
19505;SDS011;9894;50.852;-0.140;2023-04-03T01:19:17;0.80;;;0.80;;
19505;SDS011;9894;50.852;-0.140;2023-04-03T01:26:55;0.80;;;0.80;;
19505;SDS011;9894;50.852;-0.140;2023-04-03T01:29:21;0.80;;;0.80;;
19505;SDS011;9894;50.852;-0.140;2023-04-03T01:31:55;0.80;;;0.80;;
19505;SDS011;9894;50.852;-0.140;2023-04-03T01:34:22;0.70;;;0.70;;
19505;SDS011;9894;50.852;-0.140;2023-04-03T01:36:49;0.80;;;0.80;;
19505;SDS011;9894;50.852;-0.140;2023-04-03T01:39:16;0.60;;;0.60;;
19505;SDS011;9894;50.852;-0.140;2023-04-03T01:41:42;0.60;;;0.60;;
19505;SDS011;9894;50.852;-0.140;2023-04-03T01:44:08;0.40;;;0.40;;
19505;SDS011;9894;50.852;-0.140;2023-04-03T01:46:34;0.50;;;0.50;;
19505;SDS011;9894;50.852;-0.140;2023-04-03T01:49:02;0.50;;;0.50;;
19505;SDS011;9894;50.852;-0.140;2023-04-03T01:51:29;0.40;;;0.40;;
19505;SDS011;9894;50.852;-0.140;2023-04-03T01:53:55;0.40;;;0.40;;
19505;SDS011;9894;50.852;-0.140;2023-04-03T01:56:21;0.40;;;0.40;;
19505;SDS011;9894;50.852;-0.140;2023-04-03T01:58:47;0.30;;;0.30;;
19505;SDS011;9894;50.852;-0.140;2023-04-03T02:01:14;0.30;;;0.30;;
19505;SDS011;9894;50.852;-0.140;2023-04-03T02:03:40;0.30;;;0.30;;
19505;SDS011;9894;50.852;-0.140;2023-04-03T02:06:06;0.40;;;0.40;;
19505;SDS011;9894;50.852;-0.140;2023-04-03T02:08:32;0.30;;;0.30;;
19505;SDS011;9894;50.852;-0.140;2023-04-03T02:10:58;1.13;;;1.02;;
19505;SDS011;9894;50.852;-0.140;2023-04-03T02:13:25;0.30;;;0.30;;
19505;SDS011;9894;50.852;-0.140;2023-04-03T02:15:51;0.25;;;0.25;;
19505;SDS011;9894;50.852;-0.140;2023-04-03T02:18:17;0.30;;;0.30;;
19505;SDS011;9894;50.852;-0.140;2023-04-03T02:20:43;0.30;;;0.30;;
19505;SDS011;9894;50.852;-0.140;2023-04-03T02:23:09;0.30;;;0.30;;
19505;SDS011;9894;50.852;-0.140;2023-04-03T02:25:36;0.30;;;0.30;;
19505;SDS011;9894;50.852;-0.140;2023-04-03T02:28:02;0.30;;;0.30;;
19505;SDS011;9894;50.852;-0.140;2023-04-03T02:30:28;0.20;;;0.20;;
19505;SDS011;9894;50.852;-0.140;2023-04-03T02:32:54;0.30;;;0.30;;
19505;SDS011;9894;50.852;-0.140;2023-04-03T02:35:21;0.20;;;0.20;;
19505;SDS011;9894;50.852;-0.140;2023-04-03T02:37:47;0.30;;;0.30;;
19505;SDS011;9894;50.852;-0.140;2023-04-03T02:40:13;0.30;;;0.30;;
19505;SDS011;9894;50.852;-0.140;2023-04-03T02:42:39;0.28;;;0.28;;
19505;SDS011;9894;50.852;-0.140;2023-04-03T02:45:05;0.20;;;0.20;;
19505;SDS011;9894;50.852;-0.140;2023-04-03T02:47:32;0.20;;;0.20;;
19505;SDS011;9894;50.852;-0.140;2023-04-03T02:49:58;0.20;;;0.20;;
19505;SDS011;9894;50.852;-0.140;2023-04-03T02:52:24;0.30;;;0.30;;
19505;SDS011;9894;50.852;-0.140;2023-04-03T02:54:50;0.30;;;0.30;;
19505;SDS011;9894;50.852;-0.140;2023-04-03T02:57:16;0.20;;;0.20;;
19505;SDS011;9894;50.852;-0.140;2023-04-03T02:59:42;0.30;;;0.30;;
19505;SDS011;9894;50.852;-0.140;2023-04-03T03:02:09;0.20;;;0.20;;
19505;SDS011;9894;50.852;-0.140;2023-04-03T03:04:36;0.30;;;0.30;;
19505;SDS011;9894;50.852;-0.140;2023-04-03T03:07:02;0.30;;;0.30;;
19505;SDS011;9894;50.852;-0.140;2023-04-03T03:09:28;0.20;;;0.20;;
19505;SDS011;9894;50.852;-0.140;2023-04-03T03:11:55;0.30;;;0.30;;
19505;SDS011;9894;50.852;-0.140;2023-04-03T03:14:21;0.20;;;0.20;;
19505;SDS011;9894;50.852;-0.140;2023-04-03T03:16:47;0.30;;;0.30;;
19505;SDS011;9894;50.852;-0.140;2023-04-03T03:19:14;0.30;;;0.30;;
19505;SDS011;9894;50.852;-0.140;2023-04-03T03:21:40;0.47;;;0.38;;
19505;SDS011;9894;50.852;-0.140;2023-04-03T03:24:06;0.30;;;0.30;;
19505;SDS011;9894;50.852;-0.140;2023-04-03T03:26:32;0.30;;;0.30;;
19505;SDS011;9894;50.852;-0.140;2023-04-03T03:28:59;0.40;;;0.40;;
19505;SDS011;9894;50.852;-0.140;2023-04-03T03:31:25;0.30;;;0.30;;
19505;SDS011;9894;50.852;-0.140;2023-04-03T03:33:51;0.30;;;0.30;;
19505;SDS011;9894;50.852;-0.140;2023-04-03T03:36:17;0.20;;;0.20;;
19505;SDS011;9894;50.852;-0.140;2023-04-03T03:38:43;0.30;;;0.30;;
19505;SDS011;9894;50.852;-0.140;2023-04-03T03:41:10;0.20;;;0.20;;
19505;SDS011;9894;50.852;-0.140;2023-04-03T03:43:36;0.30;;;0.30;;
19505;SDS011;9894;50.852;-0.140;2023-04-03T03:46:02;0.30;;;0.30;;
19505;SDS011;9894;50.852;-0.140;2023-04-03T03:48:28;0.30;;;0.30;;
19505;SDS011;9894;50.852;-0.140;2023-04-03T03:50:54;0.30;;;0.30;;
19505;SDS011;9894;50.852;-0.140;2023-04-03T03:53:21;0.30;;;0.30;;
19505;SDS011;9894;50.852;-0.140;2023-04-03T03:55:47;0.30;;;0.30;;
19505;SDS011;9894;50.852;-0.140;2023-04-03T03:58:13;0.25;;;0.25;;
19505;SDS011;9894;50.852;-0.140;2023-04-03T04:00:39;0.30;;;0.30;;
19505;SDS011;9894;50.852;-0.140;2023-04-03T04:03:05;0.30;;;0.30;;
19505;SDS011;9894;50.852;-0.140;2023-04-03T04:05:31;0.30;;;0.30;;
19505;SDS011;9894;50.852;-0.140;2023-04-03T04:08:01;0.30;;;0.30;;
19505;SDS011;9894;50.852;-0.140;2023-04-03T04:10:27;0.30;;;0.30;;
19505;SDS011;9894;50.852;-0.140;2023-04-03T04:12:53;0.30;;;0.30;;
19505;SDS011;9894;50.852;-0.140;2023-04-03T04:15:19;0.30;;;0.30;;
19505;SDS011;9894;50.852;-0.140;2023-04-03T04:17:46;0.30;;;0.30;;
19505;SDS011;9894;50.852;-0.140;2023-04-03T04:20:13;0.25;;;0.25;;
19505;SDS011;9894;50.852;-0.140;2023-04-03T04:22:39;0.30;;;0.30;;
19505;SDS011;9894;50.852;-0.140;2023-04-03T04:25:05;0.45;;;0.45;;
19505;SDS011;9894;50.852;-0.140;2023-04-03T04:27:32;0.30;;;0.30;;
19505;SDS011;9894;50.852;-0.140;2023-04-03T04:29:58;0.20;;;0.20;;
19505;SDS011;9894;50.852;-0.140;2023-04-03T04:32:24;0.30;;;0.30;;
19505;SDS011;9894;50.852;-0.140;2023-04-03T04:34:50;0.30;;;0.30;;
19505;SDS011;9894;50.852;-0.140;2023-04-03T04:37:16;0.38;;;0.38;;
19505;SDS011;9894;50.852;-0.140;2023-04-03T04:39:42;0.40;;;0.40;;
19505;SDS011;9894;50.852;-0.140;2023-04-03T04:42:08;0.52;;;0.52;;
19505;SDS011;9894;50.852;-0.140;2023-04-03T04:44:38;0.30;;;0.30;;
19505;SDS011;9894;50.852;-0.140;2023-04-03T04:47:04;0.30;;;0.30;;
19505;SDS011;9894;50.852;-0.140;2023-04-03T04:49:30;0.32;;;0.32;;
19505;SDS011;9894;50.852;-0.140;2023-04-03T04:51:56;0.30;;;0.30;;
19505;SDS011;9894;50.852;-0.140;2023-04-03T04:54:22;0.40;;;0.40;;
19505;SDS011;9894;50.852;-0.140;2023-04-03T04:56:49;0.30;;;0.30;;
19505;SDS011;9894;50.852;-0.140;2023-04-03T04:59:15;0.30;;;0.30;;
19505;SDS011;9894;50.852;-0.140;2023-04-03T05:01:41;0.40;;;0.40;;
19505;SDS011;9894;50.852;-0.140;2023-04-03T05:04:07;0.40;;;0.40;;
19505;SDS011;9894;50.852;-0.140;2023-04-03T05:06:34;0.60;;;0.60;;
19505;SDS011;9894;50.852;-0.140;2023-04-03T05:09:00;0.38;;;0.38;;
19505;SDS011;9894;50.852;-0.140;2023-04-03T05:11:26;0.30;;;0.30;;
19505;SDS011;9894;50.852;-0.140;2023-04-03T05:13:52;0.40;;;0.40;;
19505;SDS011;9894;50.852;-0.140;2023-04-03T05:16:19;0.68;;;0.52;;
19505;SDS011;9894;50.852;-0.140;2023-04-03T05:18:45;0.40;;;0.40;;
19505;SDS011;9894;50.852;-0.140;2023-04-03T05:21:11;0.45;;;0.45;;
19505;SDS011;9894;50.852;-0.140;2023-04-03T05:23:37;0.30;;;0.30;;
19505;SDS011;9894;50.852;-0.140;2023-04-03T05:26:03;0.30;;;0.30;;
19505;SDS011;9894;50.852;-0.140;2023-04-03T05:28:29;0.40;;;0.40;;
19505;SDS011;9894;50.852;-0.140;2023-04-03T05:30:56;0.30;;;0.30;;
19505;SDS011;9894;50.852;-0.140;2023-04-03T05:33:23;0.60;;;0.60;;
19505;SDS011;9894;50.852;-0.140;2023-04-03T05:35:49;0.30;;;0.30;;
19505;SDS011;9894;50.852;-0.140;2023-04-03T05:38:15;0.40;;;0.40;;
19505;SDS011;9894;50.852;-0.140;2023-04-03T05:40:41;0.40;;;0.40;;
19505;SDS011;9894;50.852;-0.140;2023-04-03T05:43:07;0.30;;;0.30;;
19505;SDS011;9894;50.852;-0.140;2023-04-03T05:45:33;0.85;;;0.85;;
19505;SDS011;9894;50.852;-0.140;2023-04-03T05:48:00;0.30;;;0.30;;
19505;SDS011;9894;50.852;-0.140;2023-04-03T05:50:26;0.40;;;0.40;;
19505;SDS011;9894;50.852;-0.140;2023-04-03T05:52:52;0.50;;;0.50;;
19505;SDS011;9894;50.852;-0.140;2023-04-03T05:55:21;0.40;;;0.40;;
19505;SDS011;9894;50.852;-0.140;2023-04-03T05:57:47;3.65;;;2.15;;
19505;SDS011;9894;50.852;-0.140;2023-04-03T06:00:13;0.40;;;0.40;;
19505;SDS011;9894;50.852;-0.140;2023-04-03T06:02:43;0.60;;;0.60;;
19505;SDS011;9894;50.852;-0.140;2023-04-03T06:05:09;0.40;;;0.40;;
19505;SDS011;9894;50.852;-0.140;2023-04-03T06:07:37;0.40;;;0.40;;
19505;SDS011;9894;50.852;-0.140;2023-04-03T06:10:03;0.43;;;0.43;;
19505;SDS011;9894;50.852;-0.140;2023-04-03T06:12:30;3.10;;;2.25;;
19505;SDS011;9894;50.852;-0.140;2023-04-03T06:14:56;0.50;;;0.50;;
19505;SDS011;9894;50.852;-0.140;2023-04-03T06:17:23;0.98;;;0.70;;
19505;SDS011;9894;50.852;-0.140;2023-04-03T06:19:49;1.48;;;1.38;;
19505;SDS011;9894;50.852;-0.140;2023-04-03T06:22:15;0.40;;;0.40;;
19505;SDS011;9894;50.852;-0.140;2023-04-03T06:24:41;0.57;;;0.57;;
19505;SDS011;9894;50.852;-0.140;2023-04-03T06:27:09;0.40;;;0.40;;
19505;SDS011;9894;50.852;-0.140;2023-04-03T06:29:36;0.43;;;0.43;;
19505;SDS011;9894;50.852;-0.140;2023-04-03T06:32:02;0.50;;;0.50;;
19505;SDS011;9894;50.852;-0.140;2023-04-03T06:34:28;0.52;;;0.52;;
19505;SDS011;9894;50.852;-0.140;2023-04-03T06:36:54;2.17;;;1.15;;
19505;SDS011;9894;50.852;-0.140;2023-04-03T06:39:21;0.50;;;0.50;;
19505;SDS011;9894;50.852;-0.140;2023-04-03T06:41:48;0.50;;;0.50;;
19505;SDS011;9894;50.852;-0.140;2023-04-03T06:44:14;0.60;;;0.60;;
19505;SDS011;9894;50.852;-0.140;2023-04-03T06:46:41;0.50;;;0.50;;
19505;SDS011;9894;50.852;-0.140;2023-04-03T06:49:07;0.65;;;0.65;;
19505;SDS011;9894;50.852;-0.140;2023-04-03T06:51:34;0.52;;;0.52;;
19505;SDS011;9894;50.852;-0.140;2023-04-03T06:54:01;0.50;;;0.50;;
19505;SDS011;9894;50.852;-0.140;2023-04-03T06:56:27;0.50;;;0.50;;
19505;SDS011;9894;50.852;-0.140;2023-04-03T06:58:54;6.55;;;1.45;;
19505;SDS011;9894;50.852;-0.140;2023-04-03T07:01:23;0.60;;;0.60;;
19505;SDS011;9894;50.852;-0.140;2023-04-03T07:03:50;0.50;;;0.50;;
19505;SDS011;9894;50.852;-0.140;2023-04-03T07:06:16;1.13;;;1.02;;
19505;SDS011;9894;50.852;-0.140;2023-04-03T07:08:43;0.50;;;0.50;;
19505;SDS011;9894;50.852;-0.140;2023-04-03T07:11:09;0.50;;;0.50;;
19505;SDS011;9894;50.852;-0.140;2023-04-03T07:13:36;0.50;;;0.50;;
19505;SDS011;9894;50.852;-0.140;2023-04-03T07:16:02;0.70;;;0.70;;
19505;SDS011;9894;50.852;-0.140;2023-04-03T07:18:30;1.38;;;0.75;;
19505;SDS011;9894;50.852;-0.140;2023-04-03T07:20:56;0.70;;;0.70;;
19505;SDS011;9894;50.852;-0.140;2023-04-03T07:23:22;0.70;;;0.70;;
19505;SDS011;9894;50.852;-0.140;2023-04-03T07:25:49;0.60;;;0.60;;
19505;SDS011;9894;50.852;-0.140;2023-04-03T07:28:16;0.60;;;0.60;;
19505;SDS011;9894;50.852;-0.140;2023-04-03T07:30:43;0.70;;;0.70;;
19505;SDS011;9894;50.852;-0.140;2023-04-03T07:33:10;0.70;;;0.70;;
19505;SDS011;9894;50.852;-0.140;2023-04-03T07:35:37;0.60;;;0.60;;
19505;SDS011;9894;50.852;-0.140;2023-04-03T07:38:03;0.60;;;0.60;;
19505;SDS011;9894;50.852;-0.140;2023-04-03T07:40:29;0.70;;;0.70;;
19505;SDS011;9894;50.852;-0.140;2023-04-03T07:42:56;0.70;;;0.70;;
19505;SDS011;9894;50.852;-0.140;2023-04-03T07:45:22;1.00;;;1.00;;
19505;SDS011;9894;50.852;-0.140;2023-04-03T07:47:48;0.60;;;0.60;;
19505;SDS011;9894;50.852;-0.140;2023-04-03T07:50:15;0.60;;;0.60;;
19505;SDS011;9894;50.852;-0.140;2023-04-03T07:52:41;0.60;;;0.60;;
19505;SDS011;9894;50.852;-0.140;2023-04-03T07:55:08;0.70;;;0.70;;
19505;SDS011;9894;50.852;-0.140;2023-04-03T07:57:34;0.70;;;0.70;;
19505;SDS011;9894;50.852;-0.140;2023-04-03T08:00:02;1.63;;;1.17;;
19505;SDS011;9894;50.852;-0.140;2023-04-03T08:02:28;0.60;;;0.60;;
19505;SDS011;9894;50.852;-0.140;2023-04-03T08:05:00;0.65;;;0.65;;
19505;SDS011;9894;50.852;-0.140;2023-04-03T08:07:26;0.70;;;0.70;;
19505;SDS011;9894;50.852;-0.140;2023-04-03T08:09:52;0.60;;;0.60;;
19505;SDS011;9894;50.852;-0.140;2023-04-03T08:12:18;2.70;;;2.58;;
19505;SDS011;9894;50.852;-0.140;2023-04-03T08:14:44;0.90;;;0.90;;
19505;SDS011;9894;50.852;-0.140;2023-04-03T08:17:11;0.50;;;0.50;;
19505;SDS011;9894;50.852;-0.140;2023-04-03T08:19:38;0.50;;;0.50;;
19505;SDS011;9894;50.852;-0.140;2023-04-03T08:22:04;0.60;;;0.60;;
19505;SDS011;9894;50.852;-0.140;2023-04-03T08:24:34;0.68;;;0.68;;
19505;SDS011;9894;50.852;-0.140;2023-04-03T08:27:00;1.75;;;1.10;;
19505;SDS011;9894;50.852;-0.140;2023-04-03T08:29:26;0.65;;;0.65;;
19505;SDS011;9894;50.852;-0.140;2023-04-03T08:31:53;0.65;;;0.65;;
19505;SDS011;9894;50.852;-0.140;2023-04-03T08:34:20;0.93;;;0.93;;
19505;SDS011;9894;50.852;-0.140;2023-04-03T08:36:46;0.70;;;0.70;;
19505;SDS011;9894;50.852;-0.140;2023-04-03T08:39:12;0.95;;;0.95;;
19505;SDS011;9894;50.852;-0.140;2023-04-03T08:41:39;0.60;;;0.60;;
19505;SDS011;9894;50.852;-0.140;2023-04-03T08:49:43;0.70;;;0.70;;
19505;SDS011;9894;50.852;-0.140;2023-04-03T08:57:44;0.95;;;0.95;;
19505;SDS011;9894;50.852;-0.140;2023-04-03T09:00:19;0.90;;;0.90;;
19505;SDS011;9894;50.852;-0.140;2023-04-03T09:03:04;1.00;;;1.00;;
19505;SDS011;9894;50.852;-0.140;2023-04-03T09:05:45;1.23;;;1.15;;
19505;SDS011;9894;50.852;-0.140;2023-04-03T09:10:45;1.80;;;1.80;;
19505;SDS011;9894;50.852;-0.140;2023-04-03T09:15:41;3.40;;;3.20;;
19505;SDS011;9894;50.852;-0.140;2023-04-03T09:20:41;5.35;;;5.05;;
19505;SDS011;9894;50.852;-0.140;2023-04-03T09:23:14;6.50;;;6.10;;
19505;SDS011;9894;50.852;-0.140;2023-04-03T09:25:42;7.80;;;7.30;;
19505;SDS011;9894;50.852;-0.140;2023-04-03T09:28:09;7.90;;;7.40;;
19505;SDS011;9894;50.852;-0.140;2023-04-03T09:30:37;5.68;;;5.38;;
19505;SDS011;9894;50.852;-0.140;2023-04-03T09:33:03;5.60;;;5.30;;
19505;SDS011;9894;50.852;-0.140;2023-04-03T09:35:31;5.10;;;4.80;;
19505;SDS011;9894;50.852;-0.140;2023-04-03T09:40:37;5.00;;;4.70;;
19505;SDS011;9894;50.852;-0.140;2023-04-03T09:43:51;4.70;;;4.40;;
19505;SDS011;9894;50.852;-0.140;2023-04-03T09:45:53;6.50;;;5.60;;
19505;SDS011;9894;50.852;-0.140;2023-04-03T09:48:21;5.28;;;4.78;;
19505;SDS011;9894;50.852;-0.140;2023-04-03T09:55:59;6.40;;;5.95;;
19505;SDS011;9894;50.852;-0.140;2023-04-03T09:58:30;18.00;;;5.88;;
19505;SDS011;9894;50.852;-0.140;2023-04-03T10:00:59;6.38;;;5.97;;
19505;SDS011;9894;50.852;-0.140;2023-04-03T10:03:31;9.27;;;7.40;;
19505;SDS011;9894;50.852;-0.140;2023-04-03T10:05:57;7.78;;;7.28;;
19505;SDS011;9894;50.852;-0.140;2023-04-03T10:08:28;8.30;;;7.70;;
19505;SDS011;9894;50.852;-0.140;2023-04-03T10:13:49;8.90;;;8.30;;
19505;SDS011;9894;50.852;-0.140;2023-04-03T10:16:16;9.90;;;9.20;;
19505;SDS011;9894;50.852;-0.140;2023-04-03T10:19:02;9.20;;;8.60;;
19505;SDS011;9894;50.852;-0.140;2023-04-03T10:24:22;8.80;;;8.20;;
19505;SDS011;9894;50.852;-0.140;2023-04-03T10:27:01;8.80;;;8.18;;
19505;SDS011;9894;50.852;-0.140;2023-04-03T10:34:32;7.78;;;7.13;;
19505;SDS011;9894;50.852;-0.140;2023-04-03T10:54:11;12.73;;;7.78;;
19505;SDS011;9894;50.852;-0.140;2023-04-03T11:02:06;11.98;;;11.07;;
19505;SDS011;9894;50.852;-0.140;2023-04-03T11:04:34;8.18;;;7.55;;
19505;SDS011;9894;50.852;-0.140;2023-04-03T11:07:12;6.60;;;6.20;;
19505;SDS011;9894;50.852;-0.140;2023-04-03T11:09:41;7.00;;;6.50;;
19505;SDS011;9894;50.852;-0.140;2023-04-03T11:12:17;7.00;;;6.50;;
19505;SDS011;9894;50.852;-0.140;2023-04-03T11:14:44;7.25;;;6.75;;
19505;SDS011;9894;50.852;-0.140;2023-04-03T11:17:16;7.40;;;6.90;;
19505;SDS011;9894;50.852;-0.140;2023-04-03T11:22:25;7.22;;;6.72;;
19505;SDS011;9894;50.852;-0.140;2023-04-03T11:27:24;6.10;;;5.70;;
19505;SDS011;9894;50.852;-0.140;2023-04-03T11:29:51;6.80;;;6.30;;
19505;SDS011;9894;50.852;-0.140;2023-04-03T11:32:27;7.30;;;6.80;;
19505;SDS011;9894;50.852;-0.140;2023-04-03T11:34:58;6.40;;;6.00;;
19505;SDS011;9894;50.852;-0.140;2023-04-03T11:37:36;6.13;;;5.72;;
19505;SDS011;9894;50.852;-0.140;2023-04-03T11:40:05;6.13;;;5.72;;
19505;SDS011;9894;50.852;-0.140;2023-04-03T12:13:36;6.30;;;5.90;;
19505;SDS011;9894;50.852;-0.140;2023-04-03T12:16:03;6.30;;;5.90;;
19505;SDS011;9894;50.852;-0.140;2023-04-03T12:21:09;6.10;;;5.70;;
19505;SDS011;9894;50.852;-0.140;2023-04-03T12:23:36;6.30;;;5.90;;
19505;SDS011;9894;50.852;-0.140;2023-04-03T12:26:20;6.20;;;5.80;;
19505;SDS011;9894;50.852;-0.140;2023-04-03T12:28:47;6.10;;;5.70;;
19505;SDS011;9894;50.852;-0.140;2023-04-03T12:31:14;6.70;;;6.20;;
19505;SDS011;9894;50.852;-0.140;2023-04-03T12:33:55;6.50;;;6.00;;
19505;SDS011;9894;50.852;-0.140;2023-04-03T12:36:37;7.68;;;6.47;;
19505;SDS011;9894;50.852;-0.140;2023-04-03T12:39:06;6.22;;;5.82;;
19505;SDS011;9894;50.852;-0.140;2023-04-03T12:41:50;6.15;;;5.75;;
19505;SDS011;9894;50.852;-0.140;2023-04-03T12:46:45;6.00;;;5.60;;
19505;SDS011;9894;50.852;-0.140;2023-04-03T12:51:55;5.90;;;5.50;;
19505;SDS011;9894;50.852;-0.140;2023-04-03T12:56:47;6.00;;;5.60;;
19505;SDS011;9894;50.852;-0.140;2023-04-03T12:59:23;5.70;;;5.40;;
19505;SDS011;9894;50.852;-0.140;2023-04-03T13:01:59;5.57;;;5.28;;
19505;SDS011;9894;50.852;-0.140;2023-04-03T13:04:30;5.70;;;5.30;;
19505;SDS011;9894;50.852;-0.140;2023-04-03T13:06:57;5.60;;;5.30;;
19505;SDS011;9894;50.852;-0.140;2023-04-03T13:09:30;5.40;;;5.10;;
19505;SDS011;9894;50.852;-0.140;2023-04-03T13:12:00;6.25;;;5.75;;
19505;SDS011;9894;50.852;-0.140;2023-04-03T13:14:27;5.22;;;4.93;;
19505;SDS011;9894;50.852;-0.140;2023-04-03T13:19:26;5.75;;;5.35;;
19505;SDS011;9894;50.852;-0.140;2023-04-03T13:22:03;5.22;;;4.93;;
19505;SDS011;9894;50.852;-0.140;2023-04-03T13:24:30;5.20;;;4.90;;
19505;SDS011;9894;50.852;-0.140;2023-04-03T13:26:57;5.05;;;4.75;;
19505;SDS011;9894;50.852;-0.140;2023-04-03T13:29:28;4.90;;;4.60;;
19505;SDS011;9894;50.852;-0.140;2023-04-03T13:31:55;5.20;;;4.90;;
19505;SDS011;9894;50.852;-0.140;2023-04-03T13:34:22;4.55;;;4.30;;
19505;SDS011;9894;50.852;-0.140;2023-04-03T13:37:00;5.43;;;5.13;;
19505;SDS011;9894;50.852;-0.140;2023-04-03T13:39:29;5.20;;;4.90;;
19505;SDS011;9894;50.852;-0.140;2023-04-03T13:41:57;5.28;;;4.97;;
19505;SDS011;9894;50.852;-0.140;2023-04-03T13:44:31;5.35;;;4.95;;
19505;SDS011;9894;50.852;-0.140;2023-04-03T13:46:59;8.30;;;5.85;;
19505;SDS011;9894;50.852;-0.140;2023-04-03T13:49:33;5.20;;;4.90;;
19505;SDS011;9894;50.852;-0.140;2023-04-03T13:52:01;5.43;;;5.13;;
19505;SDS011;9894;50.852;-0.140;2023-04-03T13:54:36;5.30;;;5.00;;
19505;SDS011;9894;50.852;-0.140;2023-04-03T13:57:03;5.53;;;5.22;;
19505;SDS011;9894;50.852;-0.140;2023-04-03T13:59:36;5.60;;;5.30;;
19505;SDS011;9894;50.852;-0.140;2023-04-03T14:04:32;5.78;;;5.45;;
19505;SDS011;9894;50.852;-0.140;2023-04-03T14:06:59;5.50;;;5.20;;
19505;SDS011;9894;50.852;-0.140;2023-04-03T14:09:26;5.45;;;5.15;;
19505;SDS011;9894;50.852;-0.140;2023-04-03T14:11:54;7.10;;;6.60;;
19505;SDS011;9894;50.852;-0.140;2023-04-03T14:14:31;6.78;;;6.38;;
19505;SDS011;9894;50.852;-0.140;2023-04-03T14:16:59;7.00;;;6.50;;
19505;SDS011;9894;50.852;-0.140;2023-04-03T14:19:27;6.70;;;6.30;;
19505;SDS011;9894;50.852;-0.140;2023-04-03T14:21:54;6.80;;;6.30;;
19505;SDS011;9894;50.852;-0.140;2023-04-03T14:24:21;6.13;;;5.72;;
19505;SDS011;9894;50.852;-0.140;2023-04-03T14:26:48;6.60;;;6.20;;
19505;SDS011;9894;50.852;-0.140;2023-04-03T14:29:15;6.22;;;5.82;;
19505;SDS011;9894;50.852;-0.140;2023-04-03T14:31:42;6.00;;;5.60;;
19505;SDS011;9894;50.852;-0.140;2023-04-03T14:34:09;5.43;;;5.13;;
19505;SDS011;9894;50.852;-0.140;2023-04-03T14:36:36;8.07;;;5.70;;
19505;SDS011;9894;50.852;-0.140;2023-04-03T14:39:03;5.35;;;5.05;;
19505;SDS011;9894;50.852;-0.140;2023-04-03T14:41:29;5.72;;;5.40;;
19505;SDS011;9894;50.852;-0.140;2023-04-03T14:43:55;5.88;;;5.47;;
19505;SDS011;9894;50.852;-0.140;2023-04-03T14:48:51;5.50;;;5.20;;
19505;SDS011;9894;50.852;-0.140;2023-04-03T14:51:17;6.10;;;5.70;;
19505;SDS011;9894;50.852;-0.140;2023-04-03T14:53:44;5.70;;;5.40;;
19505;SDS011;9894;50.852;-0.140;2023-04-03T14:56:21;5.70;;;5.40;;
19505;SDS011;9894;50.852;-0.140;2023-04-03T14:58:50;5.78;;;5.38;;
19505;SDS011;9894;50.852;-0.140;2023-04-03T15:01:19;5.30;;;5.00;;
19505;SDS011;9894;50.852;-0.140;2023-04-03T15:03:46;5.00;;;4.70;;
19505;SDS011;9894;50.852;-0.140;2023-04-03T15:06:12;5.20;;;4.90;;
19505;SDS011;9894;50.852;-0.140;2023-04-03T15:08:39;5.35;;;4.95;;
19505;SDS011;9894;50.852;-0.140;2023-04-03T15:11:06;5.13;;;4.82;;
19505;SDS011;9894;50.852;-0.140;2023-04-03T15:13:32;5.10;;;4.80;;
19505;SDS011;9894;50.852;-0.140;2023-04-03T15:15:59;5.00;;;4.70;;
19505;SDS011;9894;50.852;-0.140;2023-04-03T15:18:26;4.88;;;4.57;;
19505;SDS011;9894;50.852;-0.140;2023-04-03T15:20:53;5.00;;;4.70;;
19505;SDS011;9894;50.852;-0.140;2023-04-03T15:23:20;5.28;;;4.97;;
19505;SDS011;9894;50.852;-0.140;2023-04-03T15:25:51;5.50;;;5.20;;
19505;SDS011;9894;50.852;-0.140;2023-04-03T15:28:19;5.25;;;4.95;;
19505;SDS011;9894;50.852;-0.140;2023-04-03T15:30:47;5.10;;;4.80;;
19505;SDS011;9894;50.852;-0.140;2023-04-03T15:33:13;5.68;;;5.28;;
19505;SDS011;9894;50.852;-0.140;2023-04-03T15:35:41;5.80;;;5.47;;
19505;SDS011;9894;50.852;-0.140;2023-04-03T15:38:07;5.20;;;4.90;;
19505;SDS011;9894;50.852;-0.140;2023-04-03T15:40:33;5.28;;;4.97;;
19505;SDS011;9894;50.852;-0.140;2023-04-03T15:43:00;5.10;;;4.80;;
19505;SDS011;9894;50.852;-0.140;2023-04-03T15:45:28;5.00;;;4.70;;
19505;SDS011;9894;50.852;-0.140;2023-04-03T15:47:55;4.93;;;4.63;;
19505;SDS011;9894;50.852;-0.140;2023-04-03T15:50:22;5.30;;;5.00;;
19505;SDS011;9894;50.852;-0.140;2023-04-03T15:52:49;5.38;;;5.07;;
19505;SDS011;9894;50.852;-0.140;2023-04-03T15:55:22;5.40;;;5.10;;
19505;SDS011;9894;50.852;-0.140;2023-04-03T15:57:48;5.50;;;5.13;;
19505;SDS011;9894;50.852;-0.140;2023-04-03T16:00:15;5.15;;;4.85;;
19505;SDS011;9894;50.852;-0.140;2023-04-03T16:02:41;5.30;;;4.90;;
19505;SDS011;9894;50.852;-0.140;2023-04-03T16:05:08;5.88;;;5.47;;
19505;SDS011;9894;50.852;-0.140;2023-04-03T16:07:36;5.18;;;4.88;;
19505;SDS011;9894;50.852;-0.140;2023-04-03T16:10:03;5.40;;;5.10;;
19505;SDS011;9894;50.852;-0.140;2023-04-03T16:12:30;5.30;;;4.95;;
19505;SDS011;9894;50.852;-0.140;2023-04-03T16:14:56;4.90;;;4.60;;
19505;SDS011;9894;50.852;-0.140;2023-04-03T16:17:22;5.65;;;5.25;;
19505;SDS011;9894;50.852;-0.140;2023-04-03T16:19:48;5.50;;;5.20;;
19505;SDS011;9894;50.852;-0.140;2023-04-03T16:22:14;5.38;;;5.07;;
19505;SDS011;9894;50.852;-0.140;2023-04-03T16:24:41;22.67;;;4.90;;
19505;SDS011;9894;50.852;-0.140;2023-04-03T16:27:07;4.78;;;4.47;;
19505;SDS011;9894;50.852;-0.140;2023-04-03T16:29:33;4.43;;;4.22;;
19505;SDS011;9894;50.852;-0.140;2023-04-03T16:31:59;4.65;;;4.35;;
19505;SDS011;9894;50.852;-0.140;2023-04-03T16:34:26;5.50;;;5.05;;
19505;SDS011;9894;50.852;-0.140;2023-04-03T16:36:53;4.75;;;4.45;;
19505;SDS011;9894;50.852;-0.140;2023-04-03T16:39:20;5.20;;;4.90;;
19505;SDS011;9894;50.852;-0.140;2023-04-03T16:41:46;5.10;;;4.80;;
19505;SDS011;9894;50.852;-0.140;2023-04-03T16:44:12;5.63;;;5.22;;
19505;SDS011;9894;50.852;-0.140;2023-04-03T16:46:38;5.10;;;4.80;;
19505;SDS011;9894;50.852;-0.140;2023-04-03T16:49:05;4.80;;;4.50;;
19505;SDS011;9894;50.852;-0.140;2023-04-03T16:51:31;5.18;;;4.88;;